sensor_id;sensor_type;location;lat;lon;timestamp;temperature;humidity
31967;DHT22;18496;52.042;6.812;2023-09-07T00:01:40;27.10;77.60
31967;DHT22;18496;52.042;6.812;2023-09-07T00:03:50;27.10;77.50
31967;DHT22;18496;52.042;6.812;2023-09-07T00:06:02;27.00;77.50
31967;DHT22;18496;52.042;6.812;2023-09-07T00:08:11;27.00;77.60
31967;DHT22;18496;52.042;6.812;2023-09-07T00:10:26;27.00;77.70
31967;DHT22;18496;52.042;6.812;2023-09-07T02:02:34;25.20;81.30
31967;DHT22;18496;52.042;6.812;2023-09-07T02:04:40;25.20;81.20
31967;DHT22;18496;52.042;6.812;2023-09-07T02:06:47;25.20;81.40
31967;DHT22;18496;52.042;6.812;2023-09-07T02:08:54;25.10;81.30
31967;DHT22;18496;52.042;6.812;2023-09-07T02:11:00;25.10;81.50
31967;DHT22;18496;52.042;6.812;2023-09-07T02:13:06;25.10;81.70
31967;DHT22;18496;52.042;6.812;2023-09-07T02:15:12;25.10;81.30
31967;DHT22;18496;52.042;6.812;2023-09-07T02:17:16;25.10;81.20
31967;DHT22;18496;52.042;6.812;2023-09-07T02:19:22;25.10;81.30
31967;DHT22;18496;52.042;6.812;2023-09-07T02:21:27;25.10;81.30
31967;DHT22;18496;52.042;6.812;2023-09-07T02:23:32;25.00;81.40
31967;DHT22;18496;52.042;6.812;2023-09-07T02:25:36;25.00;81.40
31967;DHT22;18496;52.042;6.812;2023-09-07T02:27:40;25.00;81.50
31967;DHT22;18496;52.042;6.812;2023-09-07T02:29:44;25.00;81.50
31967;DHT22;18496;52.042;6.812;2023-09-07T02:31:49;25.00;81.30
31967;DHT22;18496;52.042;6.812;2023-09-07T02:33:53;25.00;81.40
31967;DHT22;18496;52.042;6.812;2023-09-07T02:35:57;25.00;81.40
31967;DHT22;18496;52.042;6.812;2023-09-07T02:38:01;24.90;81.40
31967;DHT22;18496;52.042;6.812;2023-09-07T02:40:06;24.90;81.40
31967;DHT22;18496;52.042;6.812;2023-09-07T02:42:13;24.90;81.50
31967;DHT22;18496;52.042;6.812;2023-09-07T02:44:17;24.90;81.40
31967;DHT22;18496;52.042;6.812;2023-09-07T02:46:20;24.80;81.40
31967;DHT22;18496;52.042;6.812;2023-09-07T02:48:24;24.90;82.20
31967;DHT22;18496;52.042;6.812;2023-09-07T02:50:32;24.80;81.40
31967;DHT22;18496;52.042;6.812;2023-09-07T02:52:36;24.80;81.50
31967;DHT22;18496;52.042;6.812;2023-09-07T02:54:40;24.80;81.60
31967;DHT22;18496;52.042;6.812;2023-09-07T02:56:45;24.70;81.60
31967;DHT22;18496;52.042;6.812;2023-09-07T02:58:49;24.80;81.80
31967;DHT22;18496;52.042;6.812;2023-09-07T03:00:53;24.70;81.80
31967;DHT22;18496;52.042;6.812;2023-09-07T03:02:59;24.70;81.70
31967;DHT22;18496;52.042;6.812;2023-09-07T03:05:03;24.70;81.80
31967;DHT22;18496;52.042;6.812;2023-09-07T03:07:07;24.70;81.90
31967;DHT22;18496;52.042;6.812;2023-09-07T03:09:12;24.60;81.90
31967;DHT22;18496;52.042;6.812;2023-09-07T03:11:17;24.60;81.90
31967;DHT22;18496;52.042;6.812;2023-09-07T03:13:22;24.60;81.90
31967;DHT22;18496;52.042;6.812;2023-09-07T03:15:26;24.60;81.90
31967;DHT22;18496;52.042;6.812;2023-09-07T03:17:31;24.60;82.00
31967;DHT22;18496;52.042;6.812;2023-09-07T03:19:36;24.50;81.90
31967;DHT22;18496;52.042;6.812;2023-09-07T03:21:41;24.40;81.90
31967;DHT22;18496;52.042;6.812;2023-09-07T03:23:45;24.50;82.20
31967;DHT22;18496;52.042;6.812;2023-09-07T03:25:51;24.40;82.20
31967;DHT22;18496;52.042;6.812;2023-09-07T03:27:55;24.40;82.20
31967;DHT22;18496;52.042;6.812;2023-09-07T03:29:59;24.40;82.20
31967;DHT22;18496;52.042;6.812;2023-09-07T03:32:03;24.40;82.30
31967;DHT22;18496;52.042;6.812;2023-09-07T03:34:07;24.30;83.00
31967;DHT22;18496;52.042;6.812;2023-09-07T03:36:11;24.30;82.30
31967;DHT22;18496;52.042;6.812;2023-09-07T03:38:17;24.30;82.30
31967;DHT22;18496;52.042;6.812;2023-09-07T03:40:21;24.20;82.30
31967;DHT22;18496;52.042;6.812;2023-09-07T03:42:25;24.20;82.20
31967;DHT22;18496;52.042;6.812;2023-09-07T03:44:29;24.30;82.30
31967;DHT22;18496;52.042;6.812;2023-09-07T03:46:33;24.20;82.30
31967;DHT22;18496;52.042;6.812;2023-09-07T03:48:37;24.20;82.20
31967;DHT22;18496;52.042;6.812;2023-09-07T03:50:40;24.30;82.30
31967;DHT22;18496;52.042;6.812;2023-09-07T03:52:44;24.20;82.20
31967;DHT22;18496;52.042;6.812;2023-09-07T03:54:49;24.20;82.30
31967;DHT22;18496;52.042;6.812;2023-09-07T03:56:52;24.10;82.30
31967;DHT22;18496;52.042;6.812;2023-09-07T03:58:57;24.10;82.30
31967;DHT22;18496;52.042;6.812;2023-09-07T04:01:01;24.10;82.30
31967;DHT22;18496;52.042;6.812;2023-09-07T04:03:07;24.00;82.40
31967;DHT22;18496;52.042;6.812;2023-09-07T04:05:11;24.10;82.40
31967;DHT22;18496;52.042;6.812;2023-09-07T04:07:15;24.00;82.50
31967;DHT22;18496;52.042;6.812;2023-09-07T04:09:19;24.00;82.50
31967;DHT22;18496;52.042;6.812;2023-09-07T04:11:23;23.90;82.60
31967;DHT22;18496;52.042;6.812;2023-09-07T04:13:27;23.90;82.70
31967;DHT22;18496;52.042;6.812;2023-09-07T04:15:31;23.90;82.60
31967;DHT22;18496;52.042;6.812;2023-09-07T04:17:35;23.90;82.70
31967;DHT22;18496;52.042;6.812;2023-09-07T04:19:44;23.80;82.90
31967;DHT22;18496;52.042;6.812;2023-09-07T04:21:48;23.80;83.00
31967;DHT22;18496;52.042;6.812;2023-09-07T04:23:52;23.80;82.90
31967;DHT22;18496;52.042;6.812;2023-09-07T04:26:09;23.80;82.90
31967;DHT22;18496;52.042;6.812;2023-09-07T04:28:14;23.80;83.00
31967;DHT22;18496;52.042;6.812;2023-09-07T04:30:18;23.80;83.00
31967;DHT22;18496;52.042;6.812;2023-09-07T04:32:22;23.80;82.90
31967;DHT22;18496;52.042;6.812;2023-09-07T04:34:26;23.80;82.90
31967;DHT22;18496;52.042;6.812;2023-09-07T04:36:31;23.80;82.90
31967;DHT22;18496;52.042;6.812;2023-09-07T04:38:36;23.80;83.00
31967;DHT22;18496;52.042;6.812;2023-09-07T04:40:39;23.70;82.90
31967;DHT22;18496;52.042;6.812;2023-09-07T04:42:43;23.70;83.00
31967;DHT22;18496;52.042;6.812;2023-09-07T04:44:47;23.70;82.90
31967;DHT22;18496;52.042;6.812;2023-09-07T04:46:51;23.70;83.10
31967;DHT22;18496;52.042;6.812;2023-09-07T04:48:57;23.70;83.00
31967;DHT22;18496;52.042;6.812;2023-09-07T04:51:02;23.60;83.00
31967;DHT22;18496;52.042;6.812;2023-09-07T04:53:10;23.60;83.10
31967;DHT22;18496;52.042;6.812;2023-09-07T04:55:14;23.60;83.00
31967;DHT22;18496;52.042;6.812;2023-09-07T04:57:18;23.60;83.00
31967;DHT22;18496;52.042;6.812;2023-09-07T04:59:22;23.50;83.00
31967;DHT22;18496;52.042;6.812;2023-09-07T05:01:25;23.60;83.20
31967;DHT22;18496;52.042;6.812;2023-09-07T05:03:31;23.60;83.20
31967;DHT22;18496;52.042;6.812;2023-09-07T05:05:35;23.50;83.20
31967;DHT22;18496;52.042;6.812;2023-09-07T05:07:39;23.50;83.30
31967;DHT22;18496;52.042;6.812;2023-09-07T05:09:43;23.50;83.60
31967;DHT22;18496;52.042;6.812;2023-09-07T05:11:47;23.50;83.30
31967;DHT22;18496;52.042;6.812;2023-09-07T05:13:51;23.50;83.30
31967;DHT22;18496;52.042;6.812;2023-09-07T05:15:56;23.50;83.40
31967;DHT22;18496;52.042;6.812;2023-09-07T05:18:00;23.50;83.30
31967;DHT22;18496;52.042;6.812;2023-09-07T05:20:04;23.50;83.40
31967;DHT22;18496;52.042;6.812;2023-09-07T05:22:08;23.40;83.40
31967;DHT22;18496;52.042;6.812;2023-09-07T05:24:13;23.50;83.50
31967;DHT22;18496;52.042;6.812;2023-09-07T05:26:22;23.40;83.50
31967;DHT22;18496;52.042;6.812;2023-09-07T05:28:28;23.40;83.50
31967;DHT22;18496;52.042;6.812;2023-09-07T05:30:33;23.40;83.60
31967;DHT22;18496;52.042;6.812;2023-09-07T05:32:37;23.40;83.50
31967;DHT22;18496;52.042;6.812;2023-09-07T05:34:41;23.40;83.50
31967;DHT22;18496;52.042;6.812;2023-09-07T05:36:47;23.40;83.30
31967;DHT22;18496;52.042;6.812;2023-09-07T05:38:51;23.40;83.40
31967;DHT22;18496;52.042;6.812;2023-09-07T05:40:55;23.40;83.30
31967;DHT22;18496;52.042;6.812;2023-09-07T05:43:01;23.40;83.60
31967;DHT22;18496;52.042;6.812;2023-09-07T05:45:05;23.50;83.80
31967;DHT22;18496;52.042;6.812;2023-09-07T05:47:09;23.50;83.80
31967;DHT22;18496;52.042;6.812;2023-09-07T05:49:13;23.50;83.90
31967;DHT22;18496;52.042;6.812;2023-09-07T05:51:17;23.50;84.60
31967;DHT22;18496;52.042;6.812;2023-09-07T05:53:21;23.50;84.10
31967;DHT22;18496;52.042;6.812;2023-09-07T05:55:25;23.50;84.30
31967;DHT22;18496;52.042;6.812;2023-09-07T05:57:29;23.50;84.10
31967;DHT22;18496;52.042;6.812;2023-09-07T05:59:33;23.50;84.30
31967;DHT22;18496;52.042;6.812;2023-09-07T06:01:39;23.50;84.30
31967;DHT22;18496;52.042;6.812;2023-09-07T06:03:43;23.50;84.50
31967;DHT22;18496;52.042;6.812;2023-09-07T06:05:47;23.50;84.20
31967;DHT22;18496;52.042;6.812;2023-09-07T06:07:50;23.50;84.30
31967;DHT22;18496;52.042;6.812;2023-09-07T06:09:54;23.50;84.30
31967;DHT22;18496;52.042;6.812;2023-09-07T06:11:58;23.60;84.30
31967;DHT22;18496;52.042;6.812;2023-09-07T06:14:02;23.60;84.50
31967;DHT22;18496;52.042;6.812;2023-09-07T06:16:06;23.60;84.50
31967;DHT22;18496;52.042;6.812;2023-09-07T06:18:10;23.70;84.50
31967;DHT22;18496;52.042;6.812;2023-09-07T06:20:15;23.70;85.60
31967;DHT22;18496;52.042;6.812;2023-09-07T06:22:18;23.70;85.10
31967;DHT22;18496;52.042;6.812;2023-09-07T06:24:22;23.70;85.30
31967;DHT22;18496;52.042;6.812;2023-09-07T06:26:26;23.80;85.50
31967;DHT22;18496;52.042;6.812;2023-09-07T06:28:30;23.80;85.50
31967;DHT22;18496;52.042;6.812;2023-09-07T06:30:34;23.80;85.30
31967;DHT22;18496;52.042;6.812;2023-09-07T06:32:38;23.90;85.40
31967;DHT22;18496;52.042;6.812;2023-09-07T06:34:43;23.90;85.40
31967;DHT22;18496;52.042;6.812;2023-09-07T06:36:47;23.90;85.50
31967;DHT22;18496;52.042;6.812;2023-09-07T06:38:53;24.00;85.20
31967;DHT22;18496;52.042;6.812;2023-09-07T06:40:57;24.00;85.20
31967;DHT22;18496;52.042;6.812;2023-09-07T06:43:01;24.10;85.10
31967;DHT22;18496;52.042;6.812;2023-09-07T06:45:09;24.10;85.10
31967;DHT22;18496;52.042;6.812;2023-09-07T06:47:13;24.20;84.90
31967;DHT22;18496;52.042;6.812;2023-09-07T06:49:17;24.30;84.10
31967;DHT22;18496;52.042;6.812;2023-09-07T06:51:21;24.30;84.20
31967;DHT22;18496;52.042;6.812;2023-09-07T06:53:25;24.40;83.70
31967;DHT22;18496;52.042;6.812;2023-09-07T06:55:28;24.50;83.40
31967;DHT22;18496;52.042;6.812;2023-09-07T06:57:32;24.50;82.90
31967;DHT22;18496;52.042;6.812;2023-09-07T06:59:37;24.60;81.80
31967;DHT22;18496;52.042;6.812;2023-09-07T07:01:41;24.60;81.70
31967;DHT22;18496;52.042;6.812;2023-09-07T07:03:45;24.70;81.50
31967;DHT22;18496;52.042;6.812;2023-09-07T07:05:49;24.70;81.50
31967;DHT22;18496;52.042;6.812;2023-09-07T07:07:54;24.80;81.30
31967;DHT22;18496;52.042;6.812;2023-09-07T07:09:58;24.80;81.30
31967;DHT22;18496;52.042;6.812;2023-09-07T07:12:03;24.80;80.80
31967;DHT22;18496;52.042;6.812;2023-09-07T07:14:07;24.90;80.80
31967;DHT22;18496;52.042;6.812;2023-09-07T07:16:12;24.90;80.60
31967;DHT22;18496;52.042;6.812;2023-09-07T07:18:17;24.90;80.60
31967;DHT22;18496;52.042;6.812;2023-09-07T07:20:21;24.90;81.10
31967;DHT22;18496;52.042;6.812;2023-09-07T07:22:25;24.90;81.10
31967;DHT22;18496;52.042;6.812;2023-09-07T07:24:29;24.90;81.10
31967;DHT22;18496;52.042;6.812;2023-09-07T07:26:33;25.00;81.30
31967;DHT22;18496;52.042;6.812;2023-09-07T07:28:38;25.00;81.00
31967;DHT22;18496;52.042;6.812;2023-09-07T07:30:42;25.00;80.80
31967;DHT22;18496;52.042;6.812;2023-09-07T07:32:47;25.10;80.60
31967;DHT22;18496;52.042;6.812;2023-09-07T07:34:51;25.20;80.50
31967;DHT22;18496;52.042;6.812;2023-09-07T07:36:55;25.10;80.30
31967;DHT22;18496;52.042;6.812;2023-09-07T07:39:00;25.20;80.00
31967;DHT22;18496;52.042;6.812;2023-09-07T07:41:04;25.20;80.00
31967;DHT22;18496;52.042;6.812;2023-09-07T07:43:08;25.20;80.20
31967;DHT22;18496;52.042;6.812;2023-09-07T07:45:14;25.20;80.30
31967;DHT22;18496;52.042;6.812;2023-09-07T07:47:19;25.20;80.30
31967;DHT22;18496;52.042;6.812;2023-09-07T07:49:23;25.20;80.10
31967;DHT22;18496;52.042;6.812;2023-09-07T07:51:26;25.30;80.10
31967;DHT22;18496;52.042;6.812;2023-09-07T07:53:31;25.30;79.90
31967;DHT22;18496;52.042;6.812;2023-09-07T07:55:39;25.30;80.20
31967;DHT22;18496;52.042;6.812;2023-09-07T07:57:45;25.40;80.30
31967;DHT22;18496;52.042;6.812;2023-09-07T07:59:49;25.40;80.90
31967;DHT22;18496;52.042;6.812;2023-09-07T08:01:53;25.50;81.20
31967;DHT22;18496;52.042;6.812;2023-09-07T08:03:57;25.60;81.00
31967;DHT22;18496;52.042;6.812;2023-09-07T08:06:02;25.60;81.00
31967;DHT22;18496;52.042;6.812;2023-09-07T08:08:07;25.70;81.70
31967;DHT22;18496;52.042;6.812;2023-09-07T08:10:11;25.80;80.50
31967;DHT22;18496;52.042;6.812;2023-09-07T08:12:15;25.80;80.50
31967;DHT22;18496;52.042;6.812;2023-09-07T08:14:19;25.80;80.50
31967;DHT22;18496;52.042;6.812;2023-09-07T08:16:24;25.90;80.30
31967;DHT22;18496;52.042;6.812;2023-09-07T08:18:28;25.90;81.60
31967;DHT22;18496;52.042;6.812;2023-09-07T08:20:32;26.00;80.70
31967;DHT22;18496;52.042;6.812;2023-09-07T08:22:36;26.00;81.10
31967;DHT22;18496;52.042;6.812;2023-09-07T08:24:44;26.10;81.20
31967;DHT22;18496;52.042;6.812;2023-09-07T08:26:50;26.10;80.60
31967;DHT22;18496;52.042;6.812;2023-09-07T08:28:54;26.20;81.10
31967;DHT22;18496;52.042;6.812;2023-09-07T08:30:59;26.30;81.70
31967;DHT22;18496;52.042;6.812;2023-09-07T08:33:04;26.30;82.00
31967;DHT22;18496;52.042;6.812;2023-09-07T08:35:10;26.40;81.60
31967;DHT22;18496;52.042;6.812;2023-09-07T08:37:17;26.40;81.50
31967;DHT22;18496;52.042;6.812;2023-09-07T08:39:21;26.50;81.70
31967;DHT22;18496;52.042;6.812;2023-09-07T08:41:26;26.50;81.10
31967;DHT22;18496;52.042;6.812;2023-09-07T08:43:33;26.60;81.50
31967;DHT22;18496;52.042;6.812;2023-09-07T08:45:43;26.60;81.60
31967;DHT22;18496;52.042;6.812;2023-09-07T08:47:49;26.70;81.30
31967;DHT22;18496;52.042;6.812;2023-09-07T08:49:54;26.80;81.20
31967;DHT22;18496;52.042;6.812;2023-09-07T08:52:01;26.90;80.40
31967;DHT22;18496;52.042;6.812;2023-09-07T08:54:07;26.90;81.60
31967;DHT22;18496;52.042;6.812;2023-09-07T08:56:14;27.00;81.60
31967;DHT22;18496;52.042;6.812;2023-09-07T08:58:18;27.10;81.50
31967;DHT22;18496;52.042;6.812;2023-09-07T09:00:22;27.10;81.60
31967;DHT22;18496;52.042;6.812;2023-09-07T09:02:27;27.20;82.00
31967;DHT22;18496;52.042;6.812;2023-09-07T09:04:30;27.20;82.20
31967;DHT22;18496;52.042;6.812;2023-09-07T09:06:35;27.20;82.40
31967;DHT22;18496;52.042;6.812;2023-09-07T09:08:49;27.30;81.60
31967;DHT22;18496;52.042;6.812;2023-09-07T09:11:01;27.30;81.60
31967;DHT22;18496;52.042;6.812;2023-09-07T09:13:07;27.40;81.80
31967;DHT22;18496;52.042;6.812;2023-09-07T09:15:11;27.40;81.80
31967;DHT22;18496;52.042;6.812;2023-09-07T09:17:15;27.50;82.40
31967;DHT22;18496;52.042;6.812;2023-09-07T09:19:29;27.60;81.90
31967;DHT22;18496;52.042;6.812;2023-09-07T09:21:33;27.60;79.80
31967;DHT22;18496;52.042;6.812;2023-09-07T09:23:37;27.70;79.50
31967;DHT22;18496;52.042;6.812;2023-09-07T09:25:41;27.80;79.90
31967;DHT22;18496;52.042;6.812;2023-09-07T09:27:46;27.80;81.10
31967;DHT22;18496;52.042;6.812;2023-09-07T09:29:50;27.90;80.00
31967;DHT22;18496;52.042;6.812;2023-09-07T09:31:54;28.00;80.40
31967;DHT22;18496;52.042;6.812;2023-09-07T09:33:58;28.10;80.20
31967;DHT22;18496;52.042;6.812;2023-09-07T09:36:02;28.10;80.30
31967;DHT22;18496;52.042;6.812;2023-09-07T09:38:06;28.20;80.70
31967;DHT22;18496;52.042;6.812;2023-09-07T09:40:12;28.20;80.20
31967;DHT22;18496;52.042;6.812;2023-09-07T09:42:16;28.30;78.40
31967;DHT22;18496;52.042;6.812;2023-09-07T09:44:22;28.40;78.00
31967;DHT22;18496;52.042;6.812;2023-09-07T09:46:31;28.40;78.00
31967;DHT22;18496;52.042;6.812;2023-09-07T09:48:36;28.50;78.20
31967;DHT22;18496;52.042;6.812;2023-09-07T09:50:40;28.60;78.70
31967;DHT22;18496;52.042;6.812;2023-09-07T09:52:45;28.70;77.50
31967;DHT22;18496;52.042;6.812;2023-09-07T09:54:50;28.70;77.40
31967;DHT22;18496;52.042;6.812;2023-09-07T09:56:55;28.80;77.00
31967;DHT22;18496;52.042;6.812;2023-09-07T09:58:58;28.80;77.00
31967;DHT22;18496;52.042;6.812;2023-09-07T10:01:04;28.90;76.80
31967;DHT22;18496;52.042;6.812;2023-09-07T10:03:31;29.00;77.30
31967;DHT22;18496;52.042;6.812;2023-09-07T10:05:35;29.10;77.00
31967;DHT22;18496;52.042;6.812;2023-09-07T10:07:43;29.20;75.70
31967;DHT22;18496;52.042;6.812;2023-09-07T10:09:47;29.20;76.20
31967;DHT22;18496;52.042;6.812;2023-09-07T10:11:57;29.30;75.80
31967;DHT22;18496;52.042;6.812;2023-09-07T10:14:05;29.40;75.90
31967;DHT22;18496;52.042;6.812;2023-09-07T10:16:10;29.40;74.70
31967;DHT22;18496;52.042;6.812;2023-09-07T10:18:16;29.50;74.80
31967;DHT22;18496;52.042;6.812;2023-09-07T10:20:22;29.60;74.80
31967;DHT22;18496;52.042;6.812;2023-09-07T10:22:26;29.60;75.10
31967;DHT22;18496;52.042;6.812;2023-09-07T10:24:33;29.70;75.00
31967;DHT22;18496;52.042;6.812;2023-09-07T10:26:42;29.80;73.80
31967;DHT22;18496;52.042;6.812;2023-09-07T10:28:46;29.90;72.40
31967;DHT22;18496;52.042;6.812;2023-09-07T10:33:22;30.00;72.90
31967;DHT22;18496;52.042;6.812;2023-09-07T10:35:27;30.00;73.10
31967;DHT22;18496;52.042;6.812;2023-09-07T10:37:32;30.10;73.50
31967;DHT22;18496;52.042;6.812;2023-09-07T10:39:37;30.20;72.10
31967;DHT22;18496;52.042;6.812;2023-09-07T10:41:43;30.20;71.20
31967;DHT22;18496;52.042;6.812;2023-09-07T10:43:53;30.30;71.20
31967;DHT22;18496;52.042;6.812;2023-09-07T10:45:59;30.30;71.50
31967;DHT22;18496;52.042;6.812;2023-09-07T10:48:04;30.40;71.50
31967;DHT22;18496;52.042;6.812;2023-09-07T10:50:12;30.40;70.10
31967;DHT22;18496;52.042;6.812;2023-09-07T10:52:16;30.50;70.00
31967;DHT22;18496;52.042;6.812;2023-09-07T10:54:24;30.60;68.60
31967;DHT22;18496;52.042;6.812;2023-09-07T10:56:28;30.60;67.80
31967;DHT22;18496;52.042;6.812;2023-09-07T10:58:34;30.70;67.70
31967;DHT22;18496;52.042;6.812;2023-09-07T11:00:38;30.70;68.10
31967;DHT22;18496;52.042;6.812;2023-09-07T11:02:42;30.80;68.40
31967;DHT22;18496;52.042;6.812;2023-09-07T11:04:46;30.80;67.50
31967;DHT22;18496;52.042;6.812;2023-09-07T11:06:50;30.90;67.60
31967;DHT22;18496;52.042;6.812;2023-09-07T11:08:54;30.90;66.40
31967;DHT22;18496;52.042;6.812;2023-09-07T11:10:58;31.00;67.80
31967;DHT22;18496;52.042;6.812;2023-09-07T11:13:05;31.10;65.90
31967;DHT22;18496;52.042;6.812;2023-09-07T11:15:10;31.10;64.90
31967;DHT22;18496;52.042;6.812;2023-09-07T11:17:16;31.10;67.30
31967;DHT22;18496;52.042;6.812;2023-09-07T11:19:22;31.20;66.10
31967;DHT22;18496;52.042;6.812;2023-09-07T11:21:26;31.30;65.80
31967;DHT22;18496;52.042;6.812;2023-09-07T11:23:30;31.40;66.80
31967;DHT22;18496;52.042;6.812;2023-09-07T11:25:39;31.40;66.80
31967;DHT22;18496;52.042;6.812;2023-09-07T11:27:43;31.50;66.30
31967;DHT22;18496;52.042;6.812;2023-09-07T11:29:52;31.60;65.90
31967;DHT22;18496;52.042;6.812;2023-09-07T11:32:08;31.60;66.40
31967;DHT22;18496;52.042;6.812;2023-09-07T11:34:14;31.80;65.90
31967;DHT22;18496;52.042;6.812;2023-09-07T11:36:18;31.80;64.70
31967;DHT22;18496;52.042;6.812;2023-09-07T11:38:22;31.90;64.80
31967;DHT22;18496;52.042;6.812;2023-09-07T11:40:26;31.90;62.30
31967;DHT22;18496;52.042;6.812;2023-09-07T11:42:30;32.00;62.20
31967;DHT22;18496;52.042;6.812;2023-09-07T11:44:34;31.90;62.60
31967;DHT22;18496;52.042;6.812;2023-09-07T11:46:38;31.90;61.80
31967;DHT22;18496;52.042;6.812;2023-09-07T11:48:42;32.00;62.70
31967;DHT22;18496;52.042;6.812;2023-09-07T11:50:46;32.00;62.70
31967;DHT22;18496;52.042;6.812;2023-09-07T11:52:50;32.10;62.40
31967;DHT22;18496;52.042;6.812;2023-09-07T11:54:53;32.20;63.10
31967;DHT22;18496;52.042;6.812;2023-09-07T11:56:57;32.20;62.70
31967;DHT22;18496;52.042;6.812;2023-09-07T11:59:01;32.30;61.70
31967;DHT22;18496;52.042;6.812;2023-09-07T12:01:05;32.40;61.20
31967;DHT22;18496;52.042;6.812;2023-09-07T12:03:10;32.40;61.40
31967;DHT22;18496;52.042;6.812;2023-09-07T12:05:14;32.50;61.80
31967;DHT22;18496;52.042;6.812;2023-09-07T12:07:19;32.60;60.40
31967;DHT22;18496;52.042;6.812;2023-09-07T12:09:22;32.70;62.10
31967;DHT22;18496;52.042;6.812;2023-09-07T12:11:26;32.70;60.70
31967;DHT22;18496;52.042;6.812;2023-09-07T12:13:30;32.70;61.30
31967;DHT22;18496;52.042;6.812;2023-09-07T12:15:34;32.80;61.10
31967;DHT22;18496;52.042;6.812;2023-09-07T12:17:39;32.80;61.30
31967;DHT22;18496;52.042;6.812;2023-09-07T12:19:43;32.90;60.20
31967;DHT22;18496;52.042;6.812;2023-09-07T12:21:50;33.00;60.50
31967;DHT22;18496;52.042;6.812;2023-09-07T12:23:54;33.00;60.50
31967;DHT22;18496;52.042;6.812;2023-09-07T12:25:58;33.10;60.70
31967;DHT22;18496;52.042;6.812;2023-09-07T12:28:03;33.10;60.10
31967;DHT22;18496;52.042;6.812;2023-09-07T12:30:07;33.20;60.10
31967;DHT22;18496;52.042;6.812;2023-09-07T12:32:15;33.30;59.40
31967;DHT22;18496;52.042;6.812;2023-09-07T12:34:19;33.30;58.50
31967;DHT22;18496;52.042;6.812;2023-09-07T12:36:23;33.40;59.20
31967;DHT22;18496;52.042;6.812;2023-09-07T12:38:27;33.50;59.70
31967;DHT22;18496;52.042;6.812;2023-09-07T12:40:32;33.50;59.80
31967;DHT22;18496;52.042;6.812;2023-09-07T12:42:37;33.60;59.00
31967;DHT22;18496;52.042;6.812;2023-09-07T12:44:41;33.60;59.00
31967;DHT22;18496;52.042;6.812;2023-09-07T12:46:45;33.70;59.40
31967;DHT22;18496;52.042;6.812;2023-09-07T12:48:49;33.70;58.80
31967;DHT22;18496;52.042;6.812;2023-09-07T12:50:53;33.90;59.80
31967;DHT22;18496;52.042;6.812;2023-09-07T12:52:57;33.90;59.50
31967;DHT22;18496;52.042;6.812;2023-09-07T12:55:05;34.00;58.80
31967;DHT22;18496;52.042;6.812;2023-09-07T12:57:09;34.10;58.60
31967;DHT22;18496;52.042;6.812;2023-09-07T12:59:13;34.20;58.90
31967;DHT22;18496;52.042;6.812;2023-09-07T13:01:17;34.20;57.90
31967;DHT22;18496;52.042;6.812;2023-09-07T13:03:22;34.20;58.70
31967;DHT22;18496;52.042;6.812;2023-09-07T13:05:25;34.30;57.60
31967;DHT22;18496;52.042;6.812;2023-09-07T13:07:29;34.40;58.10
31967;DHT22;18496;52.042;6.812;2023-09-07T13:09:33;34.40;57.80
31967;DHT22;18496;52.042;6.812;2023-09-07T13:11:37;34.50;58.60
31967;DHT22;18496;52.042;6.812;2023-09-07T13:13:42;34.50;58.20
31967;DHT22;18496;52.042;6.812;2023-09-07T13:15:46;34.50;57.10
31967;DHT22;18496;52.042;6.812;2023-09-07T13:17:50;34.60;56.90
31967;DHT22;18496;52.042;6.812;2023-09-07T13:19:54;34.70;57.20
31967;DHT22;18496;52.042;6.812;2023-09-07T13:21:58;34.80;58.20
31967;DHT22;18496;52.042;6.812;2023-09-07T13:24:03;34.90;56.50
31967;DHT22;18496;52.042;6.812;2023-09-07T13:26:07;35.00;57.10
31967;DHT22;18496;52.042;6.812;2023-09-07T13:28:11;35.10;56.30
31967;DHT22;18496;52.042;6.812;2023-09-07T13:30:15;35.10;55.20
31967;DHT22;18496;52.042;6.812;2023-09-07T13:32:18;35.20;54.90
31967;DHT22;18496;52.042;6.812;2023-09-07T13:34:22;35.20;54.80
31967;DHT22;18496;52.042;6.812;2023-09-07T13:36:26;35.30;55.10
31967;DHT22;18496;52.042;6.812;2023-09-07T13:38:30;35.40;56.00
31967;DHT22;18496;52.042;6.812;2023-09-07T13:40:34;35.50;54.30
31967;DHT22;18496;52.042;6.812;2023-09-07T13:42:38;35.50;54.50
31967;DHT22;18496;52.042;6.812;2023-09-07T13:44:42;35.60;55.00
31967;DHT22;18496;52.042;6.812;2023-09-07T13:46:49;35.60;54.60
31967;DHT22;18496;52.042;6.812;2023-09-07T13:48:53;35.70;55.20
31967;DHT22;18496;52.042;6.812;2023-09-07T13:50:57;35.80;53.80
31967;DHT22;18496;52.042;6.812;2023-09-07T13:53:01;35.80;55.30
31967;DHT22;18496;52.042;6.812;2023-09-07T13:55:05;35.80;54.60
31967;DHT22;18496;52.042;6.812;2023-09-07T13:57:10;35.80;54.80
31967;DHT22;18496;52.042;6.812;2023-09-07T13:59:13;35.80;53.60
31967;DHT22;18496;52.042;6.812;2023-09-07T14:01:17;35.80;53.90
31967;DHT22;18496;52.042;6.812;2023-09-07T14:03:21;35.90;55.80
31967;DHT22;18496;52.042;6.812;2023-09-07T14:05:25;36.00;55.60
31967;DHT22;18496;52.042;6.812;2023-09-07T14:07:29;36.10;55.10
31967;DHT22;18496;52.042;6.812;2023-09-07T14:09:33;36.20;54.40
31967;DHT22;18496;52.042;6.812;2023-09-07T14:11:37;36.30;53.90
31967;DHT22;18496;52.042;6.812;2023-09-07T14:13:41;36.30;53.80
31967;DHT22;18496;52.042;6.812;2023-09-07T14:15:45;36.30;55.60
31967;DHT22;18496;52.042;6.812;2023-09-07T14:17:49;36.40;54.40
31967;DHT22;18496;52.042;6.812;2023-09-07T14:19:53;36.30;53.90
31967;DHT22;18496;52.042;6.812;2023-09-07T14:21:57;36.40;53.00
31967;DHT22;18496;52.042;6.812;2023-09-07T14:24:02;36.50;53.00
31967;DHT22;18496;52.042;6.812;2023-09-07T14:26:07;36.50;52.80
31967;DHT22;18496;52.042;6.812;2023-09-07T14:28:11;36.60;54.00
31967;DHT22;18496;52.042;6.812;2023-09-07T14:30:15;36.60;53.70
31967;DHT22;18496;52.042;6.812;2023-09-07T14:32:20;36.60;54.50
31967;DHT22;18496;52.042;6.812;2023-09-07T14:34:24;36.70;53.80
31967;DHT22;18496;52.042;6.812;2023-09-07T14:36:28;36.70;53.50
31967;DHT22;18496;52.042;6.812;2023-09-07T14:38:32;36.80;52.60
31967;DHT22;18496;52.042;6.812;2023-09-07T14:40:38;36.80;52.80
31967;DHT22;18496;52.042;6.812;2023-09-07T14:42:42;36.90;53.10
31967;DHT22;18496;52.042;6.812;2023-09-07T14:44:46;36.90;53.10
31967;DHT22;18496;52.042;6.812;2023-09-07T14:46:50;37.00;54.90
31967;DHT22;18496;52.042;6.812;2023-09-07T14:48:54;37.00;53.10
31967;DHT22;18496;52.042;6.812;2023-09-07T14:50:59;37.10;53.10
31967;DHT22;18496;52.042;6.812;2023-09-07T14:53:03;37.10;53.40
31967;DHT22;18496;52.042;6.812;2023-09-07T14:55:08;37.10;52.60
31967;DHT22;18496;52.042;6.812;2023-09-07T14:57:11;37.10;52.50
31967;DHT22;18496;52.042;6.812;2023-09-07T14:59:16;37.20;52.70
31967;DHT22;18496;52.042;6.812;2023-09-07T15:01:20;37.20;52.40